Terminal Aerodrome Forecast
Issued by NWS Wilmington, OH

Home | Current Version | Previous Version | Text Only | Print | Product List | Glossary On
Versions: 1 2 3 4 5 6 7 8 9 10 11 12 13 14 15 16 17
977
FTUS41 KILN 141805 AAA
TAFCMH
TAF AMD
KCMH 141805Z 1418/1518 14008KT P6SM OVC100
     FM142200 13008KT 4SM -SN SCT015 OVC035
     FM150000 12010KT 3SM -SN BKN015
      TEMPO 1500/1502 1 1/2SM -SN
     FM150800 15010KT 4SM -FZDZ OVC008
     FM151400 17010KT 5SM BR VCSH OVC004=

USA.gov is the U.S. government's official web portal to all federal, state and local government web resources and services.